createdAt,value
2022-07-28T00:01:07.158Z,2.08
2022-07-28T00:03:33.438Z,1.23
2022-07-28T00:05:59.791Z,2.13
2022-07-28T00:08:26.089Z,1.63
2022-07-28T00:10:52.406Z,1.27
2022-07-28T00:13:18.689Z,1.83
2022-07-28T00:15:45.039Z,2.10
2022-07-28T00:18:11.344Z,1.48
2022-07-28T00:20:37.653Z,1.33
2022-07-28T00:23:03.960Z,1.38
2022-07-28T00:25:30.343Z,1.70
2022-07-28T00:27:56.663Z,1.33
2022-07-28T00:30:23.016Z,2.17
2022-07-28T00:32:49.524Z,1.58
2022-07-28T00:35:15.852Z,2.20
2022-07-28T00:37:42.172Z,1.30
2022-07-28T00:40:10.113Z,1.77
2022-07-28T00:42:36.469Z,1.23
2022-07-28T00:45:03.080Z,2.10
2022-07-28T00:47:33.611Z,1.77
2022-07-28T00:50:00.605Z,2.03
2022-07-28T00:52:27.285Z,1.00
2022-07-28T00:54:53.582Z,1.42
2022-07-28T00:57:21.812Z,3.50
2022-07-28T00:59:48.116Z,1.30
2022-07-28T01:02:14.517Z,1.33
2022-07-28T01:04:40.904Z,1.58
2022-07-28T01:07:16.318Z,1.30
2022-07-28T01:10:01.460Z,2.08
2022-07-28T01:12:37.726Z,1.90
2022-07-28T01:15:19.148Z,1.70
2022-07-28T01:17:59.944Z,1.60
2022-07-28T01:20:30.502Z,2.10
2022-07-28T01:22:56.783Z,1.75
2022-07-28T01:25:48.314Z,2.03
2022-07-28T01:28:21.738Z,1.63
2022-07-28T01:30:49.842Z,1.95
2022-07-28T01:33:18.065Z,2.17
2022-07-28T01:35:46.510Z,1.90
2022-07-28T01:38:13.720Z,2.33
2022-07-28T01:40:42.480Z,1.55
2022-07-28T01:43:09.793Z,1.83
2022-07-28T01:45:41.091Z,1.48
2022-07-28T01:48:08.377Z,1.75
2022-07-28T01:50:35.580Z,1.65
2022-07-28T01:53:03.003Z,1.50
2022-07-28T01:55:29.684Z,1.92
2022-07-28T01:57:56.714Z,2.03
2022-07-28T02:00:24.242Z,2.00
2022-07-28T02:02:50.991Z,2.08
2022-07-28T02:05:19.355Z,2.53
2022-07-28T02:07:49.294Z,1.80
2022-07-28T02:10:16.888Z,1.83
2022-07-28T02:12:47.327Z,2.00
2022-07-28T02:15:14.617Z,2.03
2022-07-28T02:17:42.424Z,2.05
2022-07-28T02:20:10.795Z,1.73
2022-07-28T02:22:37.922Z,1.70
2022-07-28T02:25:04.934Z,1.48
2022-07-28T02:27:36.196Z,2.30
2022-07-28T02:30:05.599Z,2.28
2022-07-28T02:32:40.958Z,3.28
2022-07-28T02:35:29.130Z,2.58
2022-07-28T02:38:00.735Z,1.80
2022-07-28T02:40:29.739Z,1.80
2022-07-28T02:42:56.788Z,1.58
2022-07-28T02:45:26.348Z,2.05
2022-07-28T02:47:55.951Z,2.97
2022-07-28T02:50:24.627Z,1.67
2022-07-28T02:52:53.708Z,2.35
2022-07-28T02:55:20.128Z,2.10
2022-07-28T02:57:51.990Z,2.88
2022-07-28T03:00:21.957Z,1.90
2022-07-28T03:02:48.680Z,2.65
2022-07-28T03:05:15.335Z,2.13
2022-07-28T03:07:46.478Z,1.90
2022-07-28T03:10:18.424Z,1.83
2022-07-28T03:13:00.683Z,2.03
2022-07-28T03:15:27.035Z,2.65
2022-07-28T03:17:53.344Z,1.73
2022-07-28T03:20:19.648Z,2.25
2022-07-28T03:22:45.988Z,2.10
2022-07-28T03:25:31.208Z,2.28
2022-07-28T03:27:58.261Z,2.13
2022-07-28T03:30:34.219Z,2.38
2022-07-28T03:33:01.446Z,2.30
2022-07-28T03:35:28.495Z,1.70
2022-07-28T03:38:18.154Z,1.52
2022-07-28T03:40:46.138Z,2.58
2022-07-28T03:43:14.471Z,2.58
2022-07-28T03:45:41.639Z,3.45
2022-07-28T03:48:13.130Z,1.88
2022-07-28T03:50:39.492Z,1.98
2022-07-28T03:53:10.200Z,2.42
2022-07-28T03:55:36.490Z,2.03
2022-07-28T03:58:02.823Z,2.40
2022-07-28T04:00:29.178Z,2.42
2022-07-28T04:02:55.524Z,2.20
2022-07-28T04:05:21.959Z,1.80
2022-07-28T04:07:48.416Z,2.40
2022-07-28T04:10:15.762Z,1.80
2022-07-28T04:12:49.508Z,2.38
2022-07-28T04:15:16.103Z,1.90
2022-07-28T04:17:42.827Z,2.30
2022-07-28T04:20:09.818Z,3.45
2022-07-28T04:22:36.141Z,4.28
2022-07-28T04:25:02.699Z,1.67
2022-07-28T04:27:29.040Z,1.65
2022-07-28T04:29:55.464Z,2.47
2022-07-28T04:32:22.067Z,3.03
2022-07-28T04:34:49.537Z,2.38
2022-07-28T04:37:16.002Z,2.72
2022-07-28T04:39:42.500Z,2.65
2022-07-28T04:42:08.831Z,2.50
2022-07-28T04:44:36.938Z,1.55
2022-07-28T04:47:06.263Z,2.30
2022-07-28T04:49:32.804Z,2.30
2022-07-28T04:52:02.351Z,3.58
2022-07-28T04:54:28.677Z,2.22
2022-07-28T04:56:55.027Z,2.60
2022-07-28T04:59:22.316Z,2.50
2022-07-28T05:01:48.761Z,3.17
2022-07-28T05:04:16.279Z,2.55
2022-07-28T05:06:42.811Z,3.10
2022-07-28T05:09:09.226Z,2.67
2022-07-28T05:11:35.633Z,2.15
2022-07-28T05:14:02.042Z,1.80
2022-07-28T05:16:28.382Z,2.40
2022-07-28T05:18:54.744Z,3.55
2022-07-28T05:21:22.376Z,2.67
2022-07-28T05:23:49.261Z,2.50
2022-07-28T05:26:15.623Z,2.25
2022-07-28T05:28:41.934Z,2.58
2022-07-28T05:31:08.411Z,2.45
2022-07-28T05:33:35.291Z,3.08
2022-07-28T05:36:01.670Z,2.78
2022-07-28T05:38:28.175Z,3.70
2022-07-28T05:40:54.515Z,3.47
2022-07-28T05:43:20.821Z,3.50
2022-07-28T05:45:47.578Z,2.00
2022-07-28T05:48:16.373Z,2.90
2022-07-28T05:50:42.672Z,2.42
2022-07-28T05:53:09.143Z,2.40
2022-07-28T05:55:35.490Z,2.03
2022-07-28T05:58:22.248Z,3.35
2022-07-28T06:00:48.806Z,2.35
2022-07-28T06:03:16.221Z,1.75
2022-07-28T06:05:59.518Z,2.35
2022-07-28T06:08:29.800Z,4.07
2022-07-28T06:10:59.069Z,2.25
2022-07-28T06:13:25.685Z,2.27
2022-07-28T06:15:52.751Z,2.30
2022-07-28T06:18:22.365Z,2.53
2022-07-28T06:20:48.719Z,1.58
2022-07-28T06:23:20.380Z,2.33
2022-07-28T06:25:46.855Z,2.47
2022-07-28T06:28:13.309Z,1.55
2022-07-28T06:30:39.630Z,2.35
2022-07-28T06:33:07.422Z,1.52
2022-07-28T06:35:45.035Z,3.70
2022-07-28T06:38:17.619Z,2.45
2022-07-28T06:40:44.417Z,1.70
2022-07-28T06:43:13.280Z,2.00
2022-07-28T06:45:40.611Z,4.00
2022-07-28T06:48:08.101Z,1.75
2022-07-28T06:50:34.440Z,1.60
2022-07-28T06:53:01.503Z,2.15
2022-07-28T06:55:35.501Z,1.75
2022-07-28T06:58:02.624Z,1.88
2022-07-28T07:00:29.235Z,2.50
2022-07-28T07:02:55.643Z,2.20
2022-07-28T07:05:22.009Z,1.95
2022-07-28T07:07:48.420Z,1.85
2022-07-28T07:10:14.700Z,1.80
2022-07-28T07:12:41.026Z,1.08
2022-07-28T07:15:07.831Z,1.40
2022-07-28T07:17:34.175Z,1.25
2022-07-28T07:20:00.484Z,2.03
2022-07-28T07:22:26.833Z,2.67
2022-07-28T07:24:56.817Z,1.27
2022-07-28T07:27:23.556Z,1.40
2022-07-28T07:29:49.886Z,1.35
2022-07-28T07:32:16.195Z,1.05
2022-07-28T07:34:42.484Z,0.95
2022-07-28T07:37:13.527Z,0.73
2022-07-28T07:39:39.965Z,0.90
2022-07-28T07:42:06.414Z,0.60
2022-07-28T07:44:32.744Z,0.40
2022-07-28T07:46:59.153Z,2.10
2022-07-28T07:49:25.563Z,0.50
2022-07-28T07:52:11.813Z,0.25
2022-07-28T07:54:38.741Z,0.30
2022-07-28T07:57:05.255Z,0.20
2022-07-28T07:59:31.585Z,1.23
2022-07-28T08:01:58.024Z,0.40
2022-07-28T08:04:25.399Z,0.98
2022-07-28T08:06:52.247Z,0.20
2022-07-28T08:09:18.824Z,0.70
2022-07-28T08:11:45.538Z,0.28
2022-07-28T08:14:12.356Z,0.32
2022-07-28T08:16:38.866Z,0.75
2022-07-28T08:19:06.080Z,0.40
2022-07-28T08:21:32.532Z,0.40
2022-07-28T08:23:58.907Z,0.22
2022-07-28T08:26:25.452Z,0.65
2022-07-28T08:28:52.144Z,0.77
2022-07-28T08:31:21.936Z,1.15
2022-07-28T08:36:20.283Z,0.45
2022-07-28T08:38:46.681Z,0.65
2022-07-28T08:41:36.130Z,0.73
2022-07-28T08:44:03.716Z,1.02
2022-07-28T08:46:39.062Z,0.32
2022-07-28T08:49:07.300Z,1.02
2022-07-28T08:51:33.996Z,0.38
2022-07-28T08:54:01.581Z,0.38
2022-07-28T08:56:28.063Z,2.30
2022-07-28T08:58:54.568Z,1.33
2022-07-28T09:01:22.714Z,0.45
2022-07-28T09:03:50.018Z,0.50
2022-07-28T09:06:16.755Z,0.63
2022-07-28T09:08:43.613Z,0.57
2022-07-28T09:11:10.028Z,0.63
2022-07-28T09:13:36.663Z,0.68
2022-07-28T09:16:04.950Z,0.45
2022-07-28T09:18:31.355Z,0.20
2022-07-28T09:20:57.720Z,0.45
2022-07-28T09:23:42.960Z,0.22
2022-07-28T09:26:12.380Z,0.20
2022-07-28T09:28:48.612Z,0.30
2022-07-28T09:31:16.532Z,0.52
2022-07-28T09:34:12.755Z,0.28
2022-07-28T09:36:40.404Z,0.70
2022-07-28T09:39:06.911Z,0.20
2022-07-28T09:41:49.512Z,0.47
2022-07-28T09:44:19.763Z,0.50
2022-07-28T09:46:46.317Z,0.30
2022-07-28T09:49:12.912Z,0.22
2022-07-28T09:51:39.352Z,0.28
2022-07-28T09:54:08.034Z,0.30
2022-07-28T09:56:34.833Z,0.38
2022-07-28T09:59:03.349Z,0.17
2022-07-28T10:01:35.812Z,0.13
2022-07-28T10:04:03.927Z,1.23
2022-07-28T10:06:31.671Z,0.30
2022-07-28T10:08:59.087Z,0.10
2022-07-28T10:11:28.994Z,0.13
2022-07-28T10:14:00.266Z,0.13
2022-07-28T10:16:27.528Z,0.52
2022-07-28T10:18:54.654Z,0.20
2022-07-28T10:21:22.508Z,0.50
2022-07-28T10:23:53.854Z,0.17
2022-07-28T10:26:21.148Z,0.00
2022-07-28T10:28:49.092Z,0.50
2022-07-28T10:31:19.529Z,1.38
2022-07-28T10:33:48.539Z,0.22
2022-07-28T10:36:16.886Z,0.20
2022-07-28T10:38:43.377Z,0.30
2022-07-28T10:41:11.276Z,0.20
2022-07-28T10:43:42.834Z,0.30
2022-07-28T10:46:15.870Z,0.10
2022-07-28T10:48:43.313Z,0.63
2022-07-28T10:51:10.239Z,0.20
2022-07-28T10:53:51.410Z,0.15
2022-07-28T10:56:23.295Z,0.30
2022-07-28T10:58:53.936Z,0.20
2022-07-28T11:01:51.612Z,0.28
2022-07-28T11:04:37.975Z,0.30
2022-07-28T11:07:11.126Z,0.28
2022-07-28T11:09:37.628Z,0.40
2022-07-28T11:12:04.235Z,0.32
2022-07-28T11:14:37.235Z,0.20
2022-07-28T11:17:04.564Z,0.88
2022-07-28T11:20:01.139Z,0.47
2022-07-28T11:22:34.936Z,0.15
2022-07-28T11:25:18.837Z,0.30
2022-07-28T11:27:51.174Z,0.57
2022-07-28T11:30:33.543Z,0.10
2022-07-28T11:33:00.478Z,0.60
2022-07-28T11:35:30.882Z,0.32
2022-07-28T11:38:03.530Z,0.38
2022-07-28T11:40:40.293Z,0.47
2022-07-28T11:43:31.354Z,0.30
2022-07-28T11:46:04.417Z,0.40
2022-07-28T11:48:31.181Z,0.90
2022-07-28T11:51:03.516Z,0.28
2022-07-28T11:53:45.066Z,0.28
2022-07-28T11:56:12.512Z,0.20
2022-07-28T11:58:39.625Z,0.15
2022-07-28T12:01:21.229Z,0.20
2022-07-28T12:03:55.002Z,0.38
2022-07-28T12:06:33.605Z,0.30
2022-07-28T12:09:02.871Z,0.40
2022-07-28T12:11:33.124Z,0.20
2022-07-28T12:14:03.870Z,0.70
2022-07-28T12:16:31.596Z,0.10
2022-07-28T12:18:59.990Z,0.37
2022-07-28T12:21:47.880Z,0.13
2022-07-28T12:26:42.180Z,0.40
2022-07-28T12:29:12.506Z,0.38
2022-07-28T12:31:41.652Z,0.10
2022-07-28T12:34:11.914Z,0.68
2022-07-28T12:36:39.130Z,0.10
2022-07-28T12:39:10.845Z,0.00
2022-07-28T12:41:39.207Z,0.10
2022-07-28T12:44:06.066Z,0.15
2022-07-28T12:46:32.835Z,0.32
2022-07-28T12:48:59.824Z,0.30
2022-07-28T12:51:29.842Z,0.08
2022-07-28T12:53:56.279Z,0.43
2022-07-28T12:56:22.620Z,0.20
2022-07-28T12:58:51.197Z,0.40
2022-07-28T13:01:17.551Z,0.38
2022-07-28T13:03:52.017Z,0.20
2022-07-28T13:06:20.163Z,0.38
2022-07-28T13:08:47.259Z,0.63
2022-07-28T13:11:42.509Z,0.20
2022-07-28T13:14:01.267Z,0.30
2022-07-28T13:16:28.326Z,0.15
2022-07-28T13:18:58.452Z,0.13
2022-07-28T13:21:56.136Z,1.10
2022-07-28T13:24:26.839Z,0.13
2022-07-28T13:26:53.127Z,0.22
2022-07-28T13:29:19.729Z,0.10
2022-07-28T13:31:46.924Z,0.52
2022-07-28T13:34:13.821Z,0.43
2022-07-28T13:36:40.414Z,0.00
2022-07-28T13:39:07.141Z,0.20
2022-07-28T13:41:48.402Z,0.35
2022-07-28T13:44:20.021Z,0.40
2022-07-28T13:46:47.346Z,0.40
2022-07-28T13:49:16.620Z,0.10
2022-07-28T13:51:43.168Z,0.00
2022-07-28T13:54:09.483Z,0.47
2022-07-28T13:56:36.880Z,0.30
2022-07-28T13:59:03.231Z,0.10
2022-07-28T14:01:33.687Z,0.28
2022-07-28T14:04:01.686Z,0.17
2022-07-28T14:06:28.538Z,0.35
2022-07-28T14:08:55.210Z,0.00
2022-07-28T14:13:52.073Z,0.30
2022-07-28T14:16:19.379Z,0.38
2022-07-28T14:18:45.975Z,0.45
2022-07-28T14:21:12.524Z,0.65
2022-07-28T14:23:38.918Z,0.10
2022-07-28T14:26:33.373Z,0.10
2022-07-28T14:28:51.576Z,0.05
2022-07-28T14:31:18.131Z,0.10
2022-07-28T14:33:49.555Z,0.30
2022-07-28T14:36:18.707Z,0.10
2022-07-28T14:38:54.616Z,0.28
2022-07-28T14:41:21.157Z,0.03
2022-07-28T14:43:47.479Z,0.00
2022-07-28T14:46:20.652Z,0.00
2022-07-28T14:48:47.977Z,0.40
2022-07-28T14:51:14.404Z,0.40
2022-07-28T14:53:43.306Z,0.03
2022-07-28T14:56:16.320Z,0.50
2022-07-28T14:58:43.367Z,0.57
2022-07-28T15:01:09.735Z,0.43
2022-07-28T15:03:36.690Z,0.10
2022-07-28T15:06:03.315Z,0.10
2022-07-28T15:08:29.715Z,0.30
2022-07-28T15:10:56.079Z,0.55
2022-07-28T15:13:22.411Z,0.17
2022-07-28T15:15:48.772Z,0.40
2022-07-28T15:18:15.192Z,0.43
2022-07-28T15:20:43.197Z,0.08
2022-07-28T15:25:40.351Z,0.15
2022-07-28T15:28:06.723Z,0.17
2022-07-28T15:30:33.018Z,0.80
2022-07-28T15:33:01.687Z,0.10
2022-07-28T15:35:29.195Z,0.00
2022-07-28T15:38:15.463Z,0.20
2022-07-28T15:40:41.831Z,0.28
2022-07-28T15:43:14.516Z,0.00
2022-07-28T15:45:40.913Z,0.28
2022-07-28T15:48:07.214Z,0.20
2022-07-28T15:50:33.505Z,0.20
2022-07-28T15:52:59.824Z,0.20
2022-07-28T15:55:27.116Z,0.10
2022-07-28T15:57:55.284Z,0.40
2022-07-28T16:00:21.641Z,0.52
2022-07-28T16:02:48.075Z,0.20
2022-07-28T16:05:14.411Z,1.13
2022-07-28T16:07:44.960Z,0.45
2022-07-28T16:10:11.643Z,0.25
2022-07-28T16:12:37.948Z,0.30
2022-07-28T16:15:04.403Z,0.30
2022-07-28T16:17:30.728Z,0.40
2022-07-28T16:19:58.717Z,0.80
2022-07-28T16:22:28.831Z,0.32
2022-07-28T16:24:55.115Z,0.32
2022-07-28T16:27:21.626Z,0.43
2022-07-28T16:29:49.419Z,0.50
2022-07-28T16:32:17.130Z,0.25
2022-07-28T16:34:43.438Z,0.17
2022-07-28T16:37:09.732Z,0.63
2022-07-28T16:39:36.088Z,0.10
2022-07-28T16:42:02.943Z,0.30
2022-07-28T16:44:29.735Z,0.40
2022-07-28T16:46:56.518Z,0.30
2022-07-28T16:49:23.091Z,0.15
2022-07-28T16:51:49.565Z,0.20
2022-07-28T16:54:16.167Z,0.47
2022-07-28T16:56:42.870Z,0.32
2022-07-28T16:59:09.229Z,0.15
2022-07-28T17:01:35.568Z,0.22
2022-07-28T17:04:03.129Z,0.10
2022-07-28T17:06:29.883Z,0.52
2022-07-28T17:08:56.316Z,0.63
2022-07-28T17:11:22.730Z,0.73
2022-07-28T17:13:49.034Z,0.55
2022-07-28T17:16:15.458Z,0.20
2022-07-28T17:18:41.815Z,0.60
2022-07-28T17:21:08.140Z,0.55
2022-07-28T17:23:35.716Z,0.20
2022-07-28T17:28:53.329Z,0.32
2022-07-28T17:31:19.705Z,0.35
2022-07-28T17:33:46.257Z,0.73
2022-07-28T17:36:12.564Z,0.10
2022-07-28T17:38:38.862Z,0.22
2022-07-28T17:41:07.293Z,0.40
2022-07-28T17:43:33.760Z,0.20
2022-07-28T17:46:01.075Z,0.43
2022-07-28T17:48:29.123Z,0.32
2022-07-28T17:50:55.412Z,0.55
2022-07-28T17:53:23.503Z,0.28
2022-07-28T17:56:00.655Z,0.17
2022-07-28T17:58:32.359Z,0.30
2022-07-28T18:01:09.864Z,0.28
2022-07-28T18:03:59.159Z,0.28
2022-07-28T18:06:32.002Z,0.30
2022-07-28T18:09:06.485Z,0.13
2022-07-28T18:11:34.723Z,0.10
2022-07-28T18:14:05.021Z,0.27
2022-07-28T18:16:44.984Z,0.22
2022-07-28T18:19:11.295Z,0.28
2022-07-28T18:21:37.587Z,0.13
2022-07-28T18:24:09.481Z,0.22
2022-07-28T18:26:35.768Z,0.40
2022-07-28T18:29:02.075Z,0.20
2022-07-28T18:31:28.731Z,0.30
2022-07-28T18:33:55.384Z,0.60
2022-07-28T18:36:21.737Z,0.30
2022-07-28T18:38:48.039Z,0.32
2022-07-28T18:41:14.327Z,0.13
2022-07-28T18:43:40.626Z,0.80
2022-07-28T18:46:06.997Z,0.38
2022-07-28T18:48:33.343Z,0.45
2022-07-28T18:50:59.757Z,0.30
2022-07-28T18:53:26.625Z,0.30
2022-07-28T18:55:52.909Z,0.40
2022-07-28T18:58:19.216Z,0.35
2022-07-28T19:00:45.598Z,0.45
2022-07-28T19:03:11.967Z,0.85
2022-07-28T19:05:39.787Z,0.50
2022-07-28T19:10:34.297Z,0.52
2022-07-28T19:13:00.676Z,0.52
2022-07-28T19:15:27.044Z,0.38
2022-07-28T19:18:10.385Z,0.70
2022-07-28T19:20:38.263Z,0.57
2022-07-28T19:23:05.506Z,0.68
2022-07-28T19:25:32.060Z,0.60
2022-07-28T19:27:58.414Z,0.25
2022-07-28T19:30:24.745Z,1.20
2022-07-28T19:32:51.102Z,0.50
2022-07-28T19:35:17.450Z,0.60
2022-07-28T19:37:44.072Z,1.05
2022-07-28T19:40:11.732Z,0.50
2022-07-28T19:42:38.033Z,0.80
2022-07-28T19:45:05.024Z,1.55
2022-07-28T19:47:31.379Z,0.52
2022-07-28T19:49:58.076Z,0.85
2022-07-28T19:52:24.415Z,0.30
2022-07-28T19:54:51.535Z,0.40
2022-07-28T19:57:17.871Z,0.52
2022-07-28T19:59:44.862Z,0.80
2022-07-28T20:02:11.350Z,0.38
2022-07-28T20:04:38.154Z,0.75
2022-07-28T20:07:04.530Z,0.45
2022-07-28T20:09:30.878Z,0.47
2022-07-28T20:11:57.189Z,1.00
2022-07-28T20:14:23.507Z,0.52
2022-07-28T20:16:49.891Z,0.30
2022-07-28T20:19:16.492Z,1.27
2022-07-28T20:21:42.819Z,0.43
2022-07-28T20:24:09.438Z,0.60
2022-07-28T20:26:35.714Z,0.20
2022-07-28T20:29:02.198Z,0.20
2022-07-28T20:31:28.747Z,1.25
2022-07-28T20:33:56.451Z,0.38
2022-07-28T20:36:26.354Z,0.40
2022-07-28T20:38:57.216Z,0.40
2022-07-28T20:41:23.538Z,0.50
2022-07-28T20:44:11.116Z,0.15
2022-07-28T20:46:36.383Z,0.75
2022-07-28T20:49:02.800Z,0.22
2022-07-28T20:51:29.166Z,0.47
2022-07-28T20:53:55.489Z,0.68
2022-07-28T20:56:21.812Z,0.13
2022-07-28T20:58:48.181Z,0.10
2022-07-28T21:01:14.931Z,1.38
2022-07-28T21:03:41.705Z,0.50
2022-07-28T21:06:11.640Z,0.38
2022-07-28T21:08:41.034Z,0.52
2022-07-28T21:11:08.266Z,0.52
2022-07-28T21:13:34.671Z,1.23
2022-07-28T21:16:00.968Z,0.43
2022-07-28T21:18:27.310Z,0.10
2022-07-28T21:20:53.615Z,0.30
2022-07-28T21:23:20.055Z,0.17
2022-07-28T21:25:46.413Z,1.35
2022-07-28T21:28:39.257Z,0.20
2022-07-28T21:31:05.859Z,0.38
2022-07-28T21:33:32.330Z,0.52
2022-07-28T21:35:58.784Z,0.57
2022-07-28T21:38:25.169Z,0.60
2022-07-28T21:40:51.509Z,0.63
2022-07-28T21:43:17.876Z,0.38
2022-07-28T21:45:45.567Z,0.38
2022-07-28T21:48:12.187Z,0.20
2022-07-28T21:50:38.507Z,2.67
2022-07-28T21:53:04.908Z,0.35
2022-07-28T21:55:31.271Z,0.50
2022-07-28T21:57:57.609Z,0.30
2022-07-28T22:00:23.964Z,0.20
2022-07-28T22:02:50.288Z,0.40
2022-07-28T22:05:17.656Z,0.40
2022-07-28T22:07:43.999Z,0.25
2022-07-28T22:10:10.788Z,0.50
2022-07-28T22:12:37.148Z,0.22
2022-07-28T22:15:03.823Z,0.65
2022-07-28T22:17:30.142Z,0.20
2022-07-28T22:19:56.458Z,0.15
2022-07-28T22:22:22.771Z,0.45
2022-07-28T22:24:49.082Z,0.47
2022-07-28T22:27:15.408Z,0.38
2022-07-28T22:29:43.538Z,0.75
2022-07-28T22:32:16.370Z,0.40
2022-07-28T22:34:42.736Z,0.20
2022-07-28T22:37:13.022Z,0.40
2022-07-28T22:39:39.892Z,0.40
2022-07-28T22:42:06.292Z,0.75
2022-07-28T22:44:33.207Z,0.50
2022-07-28T22:46:59.728Z,0.50
2022-07-28T22:49:26.707Z,0.43
2022-07-28T22:51:53.146Z,0.77
2022-07-28T22:54:19.434Z,0.30
2022-07-28T22:56:45.780Z,0.30
2022-07-28T22:59:14.556Z,0.80
2022-07-28T23:01:44.105Z,1.27
2022-07-28T23:04:10.851Z,0.43
2022-07-28T23:06:37.162Z,0.73
2022-07-28T23:09:03.679Z,1.75
2022-07-28T23:11:30.024Z,0.38
2022-07-28T23:13:56.360Z,0.25
2022-07-28T23:16:23.179Z,0.38
2022-07-28T23:18:49.513Z,0.30
2022-07-28T23:21:15.857Z,0.90
2022-07-28T23:23:42.192Z,0.28
2022-07-28T23:26:08.491Z,0.68
2022-07-28T23:28:36.315Z,0.95
2022-07-28T23:31:03.376Z,0.20
2022-07-28T23:33:54.117Z,1.55
2022-07-28T23:36:26.110Z,0.82
2022-07-28T23:38:53.822Z,0.90
2022-07-28T23:41:20.135Z,1.20
2022-07-28T23:43:46.474Z,0.63
2022-07-28T23:46:12.860Z,0.20
2022-07-28T23:48:39.375Z,0.47
2022-07-28T23:51:05.756Z,0.30
2022-07-28T23:53:32.043Z,0.32
2022-07-28T23:55:58.699Z,0.20
2022-07-28T23:58:25.041Z,0.50
